Time;durP1;ratioP1;P1;durP2;ratioP2;P2;SDS_P1;SDS_P2;PMS_P1;PMS_P2;Temp;Humidity;BMP_temperature;BMP_pressure;BME280_temperature;BME280_humidity;BME280_pressure;Samples;Min_cycle;Max_cycle;Signal;HPM_P1;HPM_P2
2021/01/08 00:01:46;;;;;;;19.83;10.37;;;2.70;91.60;;;;;;5016751;28;20409;-72
2021/01/08 00:04:12;;;;;;;18.37;10.50;;;2.70;91.50;;;;;;5000330;28;20273;-74
2021/01/08 00:06:38;;;;;;;21.63;11.37;;;2.70;91.50;;;;;;5033066;28;21009;-76
2021/01/08 00:09:04;;;;;;;19.47;10.50;;;2.70;91.60;;;;;;5034498;28;20230;-74
2021/01/08 00:11:29;;;;;;;17.17;10.43;;;2.70;91.70;;;;;;5016828;28;20417;-72
2021/01/08 00:13:55;;;;;;;17.20;10.90;;;2.70;91.70;;;;;;5017279;28;20496;-76
2021/01/08 00:16:21;;;;;;;18.53;10.67;;;2.70;91.50;;;;;;5016765;28;20719;-72
2021/01/08 00:18:47;;;;;;;17.13;9.90;;;2.70;91.50;;;;;;5034100;28;20167;-74
2021/01/08 00:21:13;;;;;;;18.70;11.03;;;2.70;91.50;;;;;;5017075;28;20163;-74
2021/01/08 00:23:39;;;;;;;28.30;13.93;;;2.70;91.60;;;;;;5033497;28;20471;-72
2021/01/08 00:26:05;;;;;;;19.50;11.50;;;2.70;91.60;;;;;;5016418;28;20842;-72
2021/01/08 00:28:31;;;;;;;21.40;10.60;;;2.60;91.70;;;;;;5034537;28;20914;-74
2021/01/08 00:30:56;;;;;;;23.83;10.37;;;2.60;91.60;;;;;;5017704;28;20185;-73
2021/01/08 00:33:22;;;;;;;17.93;10.87;;;2.60;91.70;;;;;;5017000;28;20245;-73
2021/01/08 00:35:48;;;;;;;20.97;12.30;;;2.60;91.60;;;;;;5032684;28;20202;-73
2021/01/08 00:38:13;;;;;;;21.90;10.90;;;2.60;91.70;;;;;;5033402;28;20210;-72
2021/01/08 00:40:39;;;;;;;21.70;12.10;;;2.60;91.80;;;;;;5032717;28;20167;-73
2021/01/08 00:43:05;;;;;;;19.60;11.00;;;2.60;91.80;;;;;;5015844;28;20405;-72
2021/01/08 00:45:32;;;;;;;22.00;11.93;;;2.50;91.80;;;;;;5032631;28;20190;-72
2021/01/08 00:47:57;;;;;;;23.03;13.13;;;2.50;91.80;;;;;;5014549;28;20425;-73
2021/01/08 00:50:23;;;;;;;20.47;11.07;;;2.50;91.80;;;;;;5014450;28;20403;-72
2021/01/08 00:52:49;;;;;;;18.27;11.23;;;2.50;91.80;;;;;;4996104;28;20870;-73
2021/01/08 00:55:15;;;;;;;20.43;10.77;;;2.40;91.80;;;;;;4995687;28;20214;-72
2021/01/08 00:57:51;;;;;;;18.30;10.80;;;2.40;91.90;;;;;;5015555;28;20449;-74
2021/01/08 01:00:16;;;;;;;21.07;12.13;;;2.40;91.90;;;;;;4984152;28;20420;-74
2021/01/08 01:02:42;;;;;;;18.57;10.37;;;2.30;91.90;;;;;;5018139;28;20167;-73
2021/01/08 01:05:08;;;;;;;17.20;10.53;;;2.30;92.00;;;;;;5035246;28;20193;-76
2021/01/08 01:07:34;;;;;;;20.73;10.63;;;2.30;92.10;;;;;;5023042;28;20651;-72
2021/01/08 01:09:59;;;;;;;18.17;12.40;;;2.30;92.00;;;;;;5012545;28;20418;-72
2021/01/08 01:12:25;;;;;;;17.47;10.70;;;2.30;92.10;;;;;;5012292;28;20171;-72
2021/01/08 01:14:51;;;;;;;17.30;11.73;;;2.30;92.10;;;;;;5012178;28;20264;-74
2021/01/08 01:17:16;;;;;;;18.13;10.70;;;2.30;92.20;;;;;;5012643;28;20191;-72
2021/01/08 01:19:42;;;;;;;17.83;10.00;;;2.30;92.20;;;;;;5012151;28;20536;-73
2021/01/08 01:22:07;;;;;;;18.87;9.23;;;2.30;92.10;;;;;;5015957;28;20651;-73
2021/01/08 01:24:33;;;;;;;15.30;8.80;;;2.30;92.20;;;;;;5035427;28;20182;-73
2021/01/08 01:26:59;;;;;;;14.70;8.83;;;2.30;92.20;;;;;;5025438;28;20644;-72
2021/01/08 01:29:25;;;;;;;17.47;10.40;;;2.30;92.10;;;;;;5011871;28;20178;-73
2021/01/08 01:31:51;;;;;;;20.87;10.70;;;2.30;92.10;;;;;;5011742;28;20175;-73
2021/01/08 01:34:17;;;;;;;18.47;9.47;;;2.30;92.20;;;;;;4993581;28;548467;-72
2021/01/08 01:36:43;;;;;;;18.60;11.10;;;2.30;92.20;;;;;;4996164;28;20462;-72
2021/01/08 01:39:13;;;;;;;17.20;9.30;;;2.30;92.20;;;;;;5013679;28;20776;-72
2021/01/08 01:41:41;;;;;;;16.33;7.63;;;2.30;92.20;;;;;;4996245;28;21046;-71
2021/01/08 01:44:07;;;;;;;15.37;9.50;;;2.30;92.20;;;;;;5020535;28;20472;-72
2021/01/08 01:46:33;;;;;;;16.03;8.50;;;2.30;92.20;;;;;;5029089;28;20425;-72
2021/01/08 01:48:59;;;;;;;13.90;8.53;;;2.30;92.20;;;;;;5033148;28;20802;-72
2021/01/08 01:51:26;;;;;;;14.83;8.73;;;2.30;92.10;;;;;;5034601;28;20401;-72
2021/01/08 01:53:52;;;;;;;14.83;7.33;;;2.30;92.10;;;;;;5033702;28;20401;-72
2021/01/08 01:56:17;;;;;;;15.90;8.07;;;2.30;92.10;;;;;;5038391;28;20452;-72
2021/01/08 01:58:43;;;;;;;14.63;8.20;;;2.30;92.20;;;;;;5037413;28;20488;-72
2021/01/08 02:01:12;;;;;;;11.93;7.23;;;2.30;92.10;;;;;;5013019;28;20194;-71
2021/01/08 02:03:44;;;;;;;12.27;7.27;;;2.30;92.10;;;;;;4995674;28;20497;-72
2021/01/08 02:06:14;;;;;;;13.60;8.87;;;2.30;92.40;;;;;;4994824;28;20846;-71
2021/01/08 02:08:44;;;;;;;12.90;8.27;;;2.30;92.10;;;;;;5014091;28;20430;-73
2021/01/08 02:11:13;;;;;;;14.33;8.70;;;2.30;92.20;;;;;;5023160;28;20503;-73
2021/01/08 02:14:02;;;;;;;12.40;7.67;;;2.30;92.20;;;;;;5041627;28;20413;-73
2021/01/08 02:16:31;;;;;;;10.57;7.27;;;2.30;92.10;;;;;;5032003;28;20989;-72
2021/01/08 02:18:58;;;;;;;13.47;7.87;;;2.30;92.10;;;;;;5021381;28;20448;-72
2021/01/08 02:21:37;;;;;;;13.20;7.90;;;2.30;92.00;;;;;;5031960;28;20428;-73
2021/01/08 02:24:13;;;;;;;15.00;9.10;;;2.20;91.80;;;;;;5030171;28;20863;-72
2021/01/08 02:26:41;;;;;;;11.00;7.03;;;2.20;92.00;;;;;;5013942;28;20883;-72
2021/01/08 02:29:06;;;;;;;12.30;7.67;;;2.20;92.10;;;;;;5013319;28;20410;-72
2021/01/08 02:31:33;;;;;;;14.07;9.43;;;2.20;92.00;;;;;;5028707;28;20562;-72
2021/01/08 02:33:59;;;;;;;15.30;8.13;;;2.10;92.00;;;;;;5016811;28;20409;-71
2021/01/08 02:36:26;;;;;;;12.73;7.93;;;2.10;92.10;;;;;;5035523;28;20958;-71
2021/01/08 02:38:53;;;;;;;15.47;8.83;;;2.10;92.10;;;;;;5034810;28;20423;-73
2021/01/08 02:41:21;;;;;;;13.70;8.40;;;2.10;92.10;;;;;;5035307;28;20413;-72
2021/01/08 02:43:47;;;;;;;11.87;7.20;;;2.10;92.10;;;;;;5035410;28;20416;-72
2021/01/08 02:46:13;;;;;;;15.37;8.77;;;2.10;92.00;;;;;;5016316;28;20426;-71
2021/01/08 02:48:39;;;;;;;12.17;8.07;;;2.10;92.10;;;;;;5013697;28;20468;-71
2021/01/08 02:51:05;;;;;;;14.20;8.50;;;2.10;92.10;;;;;;5007937;28;20444;-72
2021/01/08 02:53:32;;;;;;;12.93;7.10;;;2.10;92.10;;;;;;5017852;28;20171;-72
2021/01/08 02:56:08;;;;;;;13.87;7.77;;;2.10;92.30;;;;;;5035454;28;20468;-72
2021/01/08 02:58:35;;;;;;;12.83;7.47;;;2.10;92.00;;;;;;5033577;28;20490;-73
2021/01/08 03:01:02;;;;;;;14.10;8.80;;;2.10;92.10;;;;;;5034965;28;20421;-73
2021/01/08 03:03:28;;;;;;;15.30;8.47;;;2.10;92.20;;;;;;5034956;28;20423;-71
2021/01/08 03:05:58;;;;;;;14.60;8.40;;;2.10;92.20;;;;;;5035548;28;20444;-73
2021/01/08 03:08:24;;;;;;;16.40;7.73;;;2.10;92.10;;;;;;5034630;28;20401;-73
2021/01/08 03:10:50;;;;;;;15.60;9.10;;;2.00;92.00;;;;;;5034688;28;20466;-74
2021/01/08 03:13:17;;;;;;;15.77;8.90;;;2.00;92.10;;;;;;5034534;28;20504;-72
2021/01/08 03:15:43;;;;;;;16.70;9.33;;;2.00;92.20;;;;;;5034221;28;20205;-72
2021/01/08 03:18:08;;;;;;;13.70;8.20;;;2.00;92.20;;;;;;5032769;28;20452;-73
2021/01/08 03:20:34;;;;;;;14.80;8.40;;;2.10;92.30;;;;;;5034546;28;20170;-72
2021/01/08 03:23:03;;;;;;;13.60;7.60;;;2.00;92.30;;;;;;5034271;28;20241;-73
2021/01/08 03:25:29;;;;;;;11.93;7.90;;;2.10;92.30;;;;;;5034658;28;20183;-73
2021/01/08 03:27:55;;;;;;;17.17;9.60;;;2.10;92.30;;;;;;5034227;28;20496;-72
2021/01/08 03:30:21;;;;;;;14.47;8.93;;;2.10;92.30;;;;;;5034379;28;20417;-72
2021/01/08 03:32:47;;;;;;;12.70;7.40;;;2.00;92.20;;;;;;5034511;28;20163;-72
2021/01/08 03:35:12;;;;;;;14.53;7.40;;;2.00;92.30;;;;;;5033384;28;20471;-73
2021/01/08 03:37:38;;;;;;;15.77;9.27;;;2.00;92.40;;;;;;5033810;28;20194;-73
2021/01/08 03:40:07;;;;;;;14.10;8.03;;;2.10;92.50;;;;;;5034506;28;20170;-73
2021/01/08 03:42:34;;;;;;;15.87;9.23;;;2.10;92.50;;;;;;5016621;28;20602;-72
2021/01/08 03:44:59;;;;;;;13.33;8.47;;;2.10;92.40;;;;;;5034300;28;20839;-72
2021/01/08 03:47:25;;;;;;;13.37;8.20;;;2.10;92.50;;;;;;5034120;28;20409;-73
2021/01/08 03:49:51;;;;;;;11.63;6.67;;;2.10;92.30;;;;;;5016311;28;20593;-73
2021/01/08 03:52:16;;;;;;;11.40;7.60;;;2.10;92.40;;;;;;5016167;28;20174;-72
2021/01/08 03:54:42;;;;;;;15.67;8.30;;;2.10;92.50;;;;;;5015713;28;20269;-73
2021/01/08 03:57:08;;;;;;;11.70;7.70;;;2.10;92.30;;;;;;4997109;28;20199;-72
2021/01/08 03:59:33;;;;;;;13.43;8.20;;;2.10;92.40;;;;;;5012482;28;20229;-72
2021/01/08 04:01:59;;;;;;;12.43;7.03;;;2.10;92.40;;;;;;5014439;28;20246;-72
2021/01/08 04:04:25;;;;;;;13.70;7.23;;;2.10;92.40;;;;;;5017393;28;20185;-72
2021/01/08 04:06:51;;;;;;;12.33;8.50;;;2.10;92.40;;;;;;5032532;28;20167;-72
2021/01/08 04:09:20;;;;;;;12.57;7.73;;;2.10;92.40;;;;;;5021003;28;20166;-73
2021/01/08 04:11:47;;;;;;;11.80;8.00;;;2.10;92.80;;;;;;5044027;28;20477;-72
2021/01/08 04:14:13;;;;;;;14.00;8.40;;;2.10;92.50;;;;;;5039226;28;21146;-73
2021/01/08 04:16:41;;;;;;;15.50;9.40;;;2.10;92.40;;;;;;5030197;28;20523;-72
2021/01/08 04:19:07;;;;;;;9.40;5.87;;;2.10;92.40;;;;;;5033335;28;20425;-72
2021/01/08 04:21:33;;;;;;;12.67;7.37;;;2.10;92.40;;;;;;5015672;28;20413;-72
2021/01/08 04:23:59;;;;;;;11.73;7.70;;;2.10;92.40;;;;;;5033369;28;20401;-72
2021/01/08 04:26:25;;;;;;;12.20;7.13;;;2.00;92.40;;;;;;5026784;28;20174;-72
2021/01/08 04:28:50;;;;;;;14.57;8.40;;;2.10;92.40;;;;;;5034670;28;20777;-72
2021/01/08 04:31:16;;;;;;;13.50;7.77;;;2.10;92.50;;;;;;5016631;28;20162;-72
2021/01/08 04:33:43;;;;;;;13.57;7.60;;;2.10;92.40;;;;;;5031679;28;20185;-72
2021/01/08 04:36:09;;;;;;;11.13;6.80;;;2.10;92.50;;;;;;5007012;28;20679;-71
2021/01/08 04:38:39;;;;;;;12.00;7.53;;;2.00;92.30;;;;;;5032962;28;20544;-72
2021/01/08 04:41:06;;;;;;;15.50;7.93;;;2.00;92.40;;;;;;5033657;28;20417;-73
2021/01/08 04:43:32;;;;;;;11.60;7.20;;;2.00;92.40;;;;;;5015161;28;20405;-71
2021/01/08 04:46:12;;;;;;;14.07;6.73;;;2.00;92.40;;;;;;5032901;28;20444;-73
2021/01/08 04:48:38;;;;;;;13.90;7.03;;;2.00;92.40;;;;;;5033062;28;20939;-72
2021/01/08 04:51:05;;;;;;;10.73;6.90;;;1.90;92.40;;;;;;5016888;28;20421;-72
2021/01/08 04:53:31;;;;;;;8.90;6.10;;;1.90;92.40;;;;;;5034138;28;20217;-71
2021/01/08 04:56:02;;;;;;;11.87;7.67;;;1.90;92.40;;;;;;4999802;28;20441;-71
2021/01/08 04:58:31;;;;;;;17.47;7.93;;;1.90;92.50;;;;;;5019042;28;20461;-72
2021/01/08 05:01:01;;;;;;;12.87;6.20;;;1.90;92.50;;;;;;5036563;28;20409;-72
2021/01/08 05:03:30;;;;;;;12.20;6.67;;;1.90;92.50;;;;;;5016909;28;20417;-72
2021/01/08 05:05:58;;;;;;;14.57;8.03;;;1.90;92.60;;;;;;5022032;28;20445;-70
2021/01/08 05:08:24;;;;;;;13.30;7.17;;;1.90;92.60;;;;;;5038480;28;20521;-71
2021/01/08 05:10:50;;;;;;;13.53;7.67;;;1.90;92.60;;;;;;5038538;28;20555;-71
2021/01/08 05:13:16;;;;;;;12.17;6.67;;;1.90;92.60;;;;;;5037252;28;20417;-72
2021/01/08 05:15:53;;;;;;;14.53;7.37;;;1.90;92.60;;;;;;5023071;28;21024;-73
2021/01/08 05:18:20;;;;;;;12.80;6.43;;;1.90;92.60;;;;;;5040028;28;20525;-72
2021/01/08 05:20:51;;;;;;;12.23;7.40;;;1.90;92.70;;;;;;5039023;28;21077;-73
2021/01/08 05:23:17;;;;;;;9.93;6.50;;;1.90;92.80;;;;;;5022382;28;20417;-71
2021/01/08 05:25:50;;;;;;;11.63;7.13;;;2.00;92.70;;;;;;5021084;28;20444;-71
2021/01/08 05:28:17;;;;;;;10.23;7.07;;;2.00;92.70;;;;;;5041780;28;20401;-73
2021/01/08 05:30:43;;;;;;;12.80;6.50;;;1.90;92.70;;;;;;5022748;28;20525;-71
2021/01/08 05:33:13;;;;;;;11.17;5.90;;;1.90;92.60;;;;;;5019362;28;20433;-73
2021/01/08 05:35:39;;;;;;;13.63;6.53;;;1.90;92.60;;;;;;5034708;28;20273;-73
2021/01/08 05:38:06;;;;;;;15.00;8.20;;;2.00;92.70;;;;;;5015113;28;20896;-72
2021/01/08 05:40:33;;;;;;;9.37;6.10;;;1.90;92.90;;;;;;5032234;28;20420;-72
2021/01/08 05:43:01;;;;;;;12.83;6.70;;;1.90;92.60;;;;;;5033454;28;20409;-72
2021/01/08 05:45:28;;;;;;;13.47;7.33;;;1.90;92.60;;;;;;5035477;28;20449;-72
2021/01/08 05:47:59;;;;;;;14.00;6.83;;;1.90;92.50;;;;;;5050020;28;20515;-72
2021/01/08 05:50:28;;;;;;;16.00;7.60;;;1.90;92.50;;;;;;5043971;28;20413;-73
2021/01/08 05:53:14;;;;;;;14.20;7.33;;;1.80;92.40;;;;;;5014424;28;20405;-72
2021/01/08 05:55:43;;;;;;;8.23;5.03;;;1.80;92.50;;;;;;5015126;28;20467;-72
2021/01/08 05:58:22;;;;;;;12.10;6.30;;;1.80;92.60;;;;;;5016392;28;21149;-72
2021/01/08 06:01:03;;;;;;;9.87;5.17;;;1.80;92.40;;;;;;5046593;28;20925;-71
2021/01/08 06:03:29;;;;;;;15.90;6.77;;;1.70;92.40;;;;;;5032557;28;20485;-73
2021/01/08 06:05:59;;;;;;;13.33;6.43;;;1.70;92.50;;;;;;5033750;28;20506;-72
2021/01/08 06:08:28;;;;;;;12.63;6.70;;;1.70;92.60;;;;;;5018546;28;20894;-72
2021/01/08 06:10:56;;;;;;;10.87;5.83;;;1.70;92.60;;;;;;5037967;28;20440;-73
2021/01/08 06:13:31;;;;;;;15.47;7.40;;;1.70;92.60;;;;;;5038935;28;20849;-72
2021/01/08 06:15:57;;;;;;;14.60;6.97;;;1.70;92.60;;;;;;5036472;28;20570;-71
2021/01/08 06:18:25;;;;;;;13.77;6.90;;;1.70;92.60;;;;;;5017911;28;20452;-73
2021/01/08 06:20:53;;;;;;;13.43;6.57;;;1.80;92.70;;;;;;5035606;28;20409;-71
2021/01/08 06:23:41;;;;;;;12.17;6.77;;;1.80;92.70;;;;;;5035898;28;20933;-72
2021/01/08 06:26:09;;;;;;;13.30;6.47;;;1.80;92.60;;;;;;5035384;28;20451;-71
2021/01/08 06:28:47;;;;;;;11.13;6.40;;;1.80;92.70;;;;;;5017254;28;20420;-72
2021/01/08 06:31:24;;;;;;;16.93;6.87;;;1.80;92.60;;;;;;5017494;28;20459;-73
2021/01/08 06:33:56;;;;;;;13.63;7.90;;;1.80;92.60;;;;;;5017867;28;20417;-72
2021/01/08 06:36:32;;;;;;;16.33;7.33;;;1.80;92.50;;;;;;5035070;28;20429;-72
2021/01/08 06:39:00;;;;;;;11.27;6.33;;;1.80;92.60;;;;;;5035762;28;21112;-74
2021/01/08 06:41:27;;;;;;;14.90;7.30;;;1.80;92.70;;;;;;5001756;28;20451;-73
2021/01/08 06:43:58;;;;;;;13.70;7.50;;;1.80;92.80;;;;;;5035894;28;20401;-73
2021/01/08 06:46:37;;;;;;;12.90;6.60;;;1.80;92.70;;;;;;5017933;28;20194;-73
2021/01/08 06:49:11;;;;;;;11.17;6.83;;;1.80;92.60;;;;;;5035980;28;20401;-72
2021/01/08 06:51:41;;;;;;;21.47;9.27;;;1.80;92.60;;;;;;5035543;28;20463;-72
2021/01/08 06:54:12;;;;;;;12.57;6.97;;;1.80;92.70;;;;;;5035618;28;20428;-73
2021/01/08 06:56:40;;;;;;;11.77;6.10;;;1.90;92.70;;;;;;5001484;28;20489;-74
2021/01/08 06:59:16;;;;;;;12.47;5.83;;;1.90;92.70;;;;;;5035496;28;20416;-73
2021/01/08 07:01:52;;;;;;;13.33;6.10;;;1.90;92.70;;;;;;5035285;28;20447;-72
2021/01/08 07:04:26;;;;;;;10.50;5.70;;;1.90;92.70;;;;;;5035073;28;20463;-72
2021/01/08 07:06:57;;;;;;;10.83;6.10;;;1.90;92.70;;;;;;5016972;28;20424;-73
2021/01/08 07:09:35;;;;;;;13.27;7.53;;;1.90;92.60;;;;;;5034390;28;20413;-73
2021/01/08 07:12:02;;;;;;;11.43;6.27;;;1.90;92.60;;;;;;5031139;28;20426;-73
2021/01/08 07:14:27;;;;;;;11.60;7.17;;;1.90;92.50;;;;;;5015225;28;20437;-73
2021/01/08 07:16:55;;;;;;;23.37;11.30;;;1.90;92.60;;;;;;5032041;28;20456;-76
2021/01/08 07:19:23;;;;;;;19.43;9.60;;;1.90;92.60;;;;;;5035064;28;20163;-74
2021/01/08 07:21:51;;;;;;;18.07;9.00;;;1.90;92.60;;;;;;5033217;28;20428;-73
2021/01/08 07:24:22;;;;;;;20.27;11.10;;;1.90;92.60;;;;;;5032141;28;20961;-74
2021/01/08 07:26:48;;;;;;;12.03;7.90;;;1.90;92.60;;;;;;5033909;28;20420;-74
2021/01/08 07:29:15;;;;;;;14.97;7.60;;;1.90;92.60;;;;;;5034520;28;20444;-74
2021/01/08 07:31:41;;;;;;;18.50;9.00;;;2.00;92.60;;;;;;5032904;28;20487;-73
2021/01/08 07:34:10;;;;;;;17.60;8.47;;;2.00;92.60;;;;;;5033770;28;20991;-73
2021/01/08 07:36:37;;;;;;;14.30;8.30;;;2.00;92.60;;;;;;5033413;28;20421;-74
2021/01/08 07:39:24;;;;;;;12.77;7.60;;;2.00;92.60;;;;;;5033811;28;20425;-74
2021/01/08 07:41:50;;;;;;;13.33;7.73;;;2.00;92.50;;;;;;5017242;28;20421;-73
2021/01/08 07:44:34;;;;;;;15.70;9.37;;;2.00;92.60;;;;;;5017027;28;20436;-75
2021/01/08 07:47:27;;;;;;;14.10;8.50;;;2.10;92.50;;;;;;5035368;28;20181;-75
2021/01/08 07:50:04;;;;;;;14.60;8.80;;;2.00;92.40;;;;;;5015312;28;20440;-73
2021/01/08 07:52:38;;;;;;;24.03;9.87;;;2.10;92.40;;;;;;5022579;28;20425;-74
2021/01/08 07:55:04;;;;;;;15.33;8.03;;;2.10;92.40;;;;;;5035941;28;20437;-74
2021/01/08 07:57:30;;;;;;;16.30;9.00;;;2.00;92.40;;;;;;5034954;28;20457;-73
2021/01/08 07:59:55;;;;;;;15.33;9.27;;;2.00;92.40;;;;;;5016276;28;20420;-75
2021/01/08 08:02:21;;;;;;;17.07;9.00;;;2.10;92.40;;;;;;4999888;28;20170;-75
2021/01/08 08:04:48;;;;;;;15.73;9.37;;;2.00;92.30;;;;;;5034287;28;20182;-75
2021/01/08 08:07:14;;;;;;;18.63;9.47;;;2.00;92.30;;;;;;5003358;28;20423;-75
2021/01/08 08:09:40;;;;;;;17.90;10.40;;;2.10;92.40;;;;;;5042140;28;20417;-75
2021/01/08 08:12:10;;;;;;;16.07;9.83;;;2.10;92.40;;;;;;5027940;28;20429;-75
2021/01/08 08:14:36;;;;;;;16.27;10.53;;;2.10;92.40;;;;;;5050659;28;20224;-76
2021/01/08 08:17:01;;;;;;;17.20;10.30;;;2.10;92.30;;;;;;5027616;28;20465;-74
2021/01/08 08:19:34;;;;;;;20.13;11.53;;;2.10;92.30;;;;;;5044421;28;20176;-75
2021/01/08 08:22:00;;;;;;;18.50;11.17;;;2.10;92.30;;;;;;5040909;28;20421;-76
2021/01/08 08:24:27;;;;;;;17.10;9.97;;;2.10;92.20;;;;;;5042308;28;20443;-76
2021/01/08 08:26:54;;;;;;;21.00;13.47;;;2.10;92.30;;;;;;5014308;28;20463;-76
2021/01/08 08:29:21;;;;;;;16.80;10.50;;;2.10;92.30;;;;;;5024403;28;20849;-75
2021/01/08 08:31:50;;;;;;;20.37;11.93;;;2.10;92.30;;;;;;5040226;28;20416;-76
2021/01/08 08:34:26;;;;;;;21.50;11.53;;;2.10;92.20;;;;;;5048229;28;20463;-75
2021/01/08 08:36:51;;;;;;;21.30;11.90;;;2.10;92.20;;;;;;5024226;28;20412;-76
2021/01/08 08:39:17;;;;;;;16.43;10.70;;;2.10;92.30;;;;;;5034915;28;21016;-75
2021/01/08 08:41:45;;;;;;;16.83;12.13;;;2.10;92.00;;;;;;5032564;28;20174;-75
2021/01/08 08:44:18;;;;;;;15.97;11.10;;;2.10;92.00;;;;;;5048846;28;20900;-75
2021/01/08 08:46:49;;;;;;;23.03;11.97;;;2.10;92.00;;;;;;5020919;28;20397;-76
2021/01/08 08:49:20;;;;;;;15.43;8.60;;;2.20;92.20;;;;;;5043872;28;20420;-76
2021/01/08 08:51:50;;;;;;;16.70;10.07;;;2.20;92.10;;;;;;5040495;28;20415;-76
2021/01/08 08:54:17;;;;;;;18.13;10.43;;;2.20;91.90;;;;;;5031014;28;20445;-75
2021/01/08 08:56:53;;;;;;;18.40;9.77;;;2.20;92.00;;;;;;5048046;28;20405;-76
2021/01/08 08:59:42;;;;;;;16.10;10.60;;;2.30;92.10;;;;;;5040800;28;20487;-75
2021/01/08 09:02:09;;;;;;;15.20;9.50;;;2.30;92.00;;;;;;5018643;28;20427;-75
2021/01/08 09:04:36;;;;;;;17.93;10.80;;;2.30;91.80;;;;;;5033161;28;20555;-75
2021/01/08 09:07:13;;;;;;;17.63;9.23;;;2.30;91.90;;;;;;5010668;28;20461;-75
2021/01/08 09:09:41;;;;;;;17.63;10.53;;;2.30;91.80;;;;;;5029462;28;21045;-75
2021/01/08 09:12:25;;;;;;;14.67;8.60;;;2.30;92.00;;;;;;5003876;28;20417;-75
2021/01/08 09:14:57;;;;;;;13.87;8.10;;;2.30;91.90;;;;;;5023051;28;20420;-75
2021/01/08 09:17:29;;;;;;;22.13;11.03;;;2.40;91.90;;;;;;5043957;28;20459;-75
2021/01/08 09:20:00;;;;;;;18.27;9.20;;;2.40;92.00;;;;;;5047043;28;20416;-75
2021/01/08 09:22:33;;;;;;;16.77;8.47;;;2.40;91.90;;;;;;5037673;28;20409;-75
2021/01/08 09:25:00;;;;;;;14.27;7.43;;;2.40;91.90;;;;;;5029362;28;20440;-76
2021/01/08 09:27:25;;;;;;;11.20;6.93;;;2.50;91.90;;;;;;5045488;28;20427;-76
2021/01/08 09:29:51;;;;;;;12.50;6.63;;;2.50;91.70;;;;;;5032501;28;20421;-77
2021/01/08 09:32:31;;;;;;;17.47;8.80;;;2.50;91.50;;;;;;5033454;28;20417;-75
2021/01/08 09:35:05;;;;;;;13.90;8.20;;;2.60;91.80;;;;;;5038913;28;20204;-76
2021/01/08 09:37:38;;;;;;;13.87;7.60;;;2.70;91.80;;;;;;5043985;28;20448;-78
2021/01/08 09:40:09;;;;;;;21.60;9.70;;;2.80;91.80;;;;;;5049140;28;20408;-77
2021/01/08 09:42:36;;;;;;;44.80;17.03;;;2.80;91.40;;;;;;5028835;28;20583;-77
2021/01/08 09:45:15;;;;;;;32.53;11.57;;;2.80;91.20;;;;;;5031933;28;20516;-77
2021/01/08 09:47:41;;;;;;;28.00;11.50;;;2.80;91.10;;;;;;5036120;28;20495;-75
2021/01/08 09:50:07;;;;;;;14.37;7.20;;;2.80;91.20;;;;;;5013967;28;20416;-76
2021/01/08 09:52:33;;;;;;;11.60;6.50;;;2.80;91.30;;;;;;5032451;28;20418;-77
2021/01/08 09:54:59;;;;;;;10.60;5.87;;;2.80;90.90;;;;;;5039911;28;20463;-75
2021/01/08 09:57:38;;;;;;;13.47;6.13;;;2.80;90.80;;;;;;5029768;28;20456;-77
2021/01/08 10:00:11;;;;;;;13.40;6.90;;;2.80;91.00;;;;;;5036368;28;21002;-75
2021/01/08 10:02:46;;;;;;;13.30;6.90;;;2.80;91.10;;;;;;5060009;28;20443;-77
2021/01/08 10:05:18;;;;;;;12.13;6.40;;;2.90;91.20;;;;;;5041115;28;20433;-75
2021/01/08 10:07:45;;;;;;;17.80;8.23;;;2.90;91.10;;;;;;5048717;28;20428;-74
2021/01/08 10:10:15;;;;;;;17.00;7.20;;;2.90;91.20;;;;;;5035186;28;20444;-74
2021/01/08 10:12:48;;;;;;;16.70;7.50;;;2.90;91.10;;;;;;5049763;28;20463;-74
2021/01/08 10:15:16;;;;;;;11.33;7.53;;;2.90;91.10;;;;;;5031874;28;20447;-74
2021/01/08 10:17:51;;;;;;;12.80;7.93;;;3.00;91.20;;;;;;5063018;28;20468;-76
2021/01/08 10:20:23;;;;;;;13.43;7.67;;;3.00;91.20;;;;;;5046467;28;20428;-73
2021/01/08 10:22:50;;;;;;;26.63;12.90;;;3.10;91.20;;;;;;5054436;28;20515;-75
2021/01/08 10:25:27;;;;;;;39.83;16.80;;;3.20;91.00;;;;;;5035901;28;20429;-75
2021/01/08 10:27:54;;;;;;;18.40;9.03;;;3.20;90.80;;;;;;5029966;28;20411;-74
2021/01/08 10:30:21;;;;;;;12.43;6.90;;;3.10;90.50;;;;;;5035902;28;20414;-74
2021/01/08 10:32:49;;;;;;;11.70;6.90;;;3.10;90.70;;;;;;5043861;28;20424;-75
2021/01/08 10:35:18;;;;;;;16.27;6.73;;;3.10;91.00;;;;;;5032862;28;20468;-74
2021/01/08 10:37:47;;;;;;;10.80;6.00;;;3.10;91.10;;;;;;5031297;28;20457;-74
2021/01/08 10:40:13;;;;;;;11.90;6.90;;;3.10;90.90;;;;;;5048101;28;20527;-75
2021/01/08 10:42:39;;;;;;;13.77;7.27;;;3.20;91.00;;;;;;5033365;28;20442;-73
2021/01/08 10:45:05;;;;;;;10.97;6.33;;;3.20;90.80;;;;;;5039261;28;20428;-75
2021/01/08 10:47:31;;;;;;;10.77;6.60;;;3.20;90.90;;;;;;5035447;28;20228;-75
2021/01/08 10:50:00;;;;;;;12.60;6.93;;;3.20;90.80;;;;;;5013509;28;20417;-75
2021/01/08 10:52:25;;;;;;;10.23;6.13;;;3.30;90.50;;;;;;5055179;28;20192;-77
2021/01/08 10:54:51;;;;;;;13.00;7.43;;;3.30;90.60;;;;;;5041017;28;21182;-76
2021/01/08 10:57:17;;;;;;;13.60;7.37;;;3.40;90.70;;;;;;5047052;28;20461;-77
2021/01/08 10:59:45;;;;;;;17.40;6.87;;;3.40;90.50;;;;;;5044391;28;20662;-75
2021/01/08 11:02:11;;;;;;;9.00;6.30;;;3.50;90.50;;;;;;5036799;28;20208;-74
2021/01/08 11:04:39;;;;;;;11.83;6.50;;;3.60;90.40;;;;;;5028306;28;20444;-75
2021/01/08 11:07:05;;;;;;;15.37;7.60;;;3.70;90.20;;;;;;5049949;28;20443;-76
2021/01/08 11:09:30;;;;;;;14.70;6.93;;;3.80;90.10;;;;;;5046791;28;20425;-77
2021/01/08 11:11:56;;;;;;;11.30;6.83;;;3.80;89.40;;;;;;5034845;28;20181;-75
2021/01/08 11:14:22;;;;;;;10.17;6.40;;;3.80;90.00;;;;;;5021250;28;20221;-76
2021/01/08 11:16:48;;;;;;;15.43;6.83;;;3.90;89.30;;;;;;5036251;28;20542;-76
2021/01/08 11:19:13;;;;;;;13.40;7.37;;;3.90;89.40;;;;;;5018260;28;20429;-76
2021/01/08 11:21:43;;;;;;;10.87;6.20;;;3.90;90.10;;;;;;5035203;28;20166;-75
2021/01/08 11:24:09;;;;;;;12.17;8.07;;;4.00;90.00;;;;;;5026543;28;20205;-76
2021/01/08 11:26:35;;;;;;;18.30;10.47;;;4.00;88.90;;;;;;5044436;28;20883;-79
2021/01/08 11:29:00;;;;;;;24.00;13.47;;;3.90;88.20;;;;;;5050262;28;20456;-75
2021/01/08 11:31:44;;;;;;;16.73;9.37;;;3.90;88.60;;;;;;5008053;28;20216;-74
2021/01/08 11:34:10;;;;;;;15.30;8.30;;;3.90;88.70;;;;;;5015147;28;20186;-75
2021/01/08 11:36:36;;;;;;;18.40;9.23;;;3.90;88.20;;;;;;5050624;28;20461;-76
2021/01/08 11:39:03;;;;;;;15.60;9.43;;;3.90;88.70;;;;;;5036504;28;20468;-75
2021/01/08 11:41:28;;;;;;;20.13;10.80;;;3.90;89.80;;;;;;5034008;28;20409;-75
2021/01/08 11:43:54;;;;;;;16.63;9.73;;;3.90;88.20;;;;;;5044710;28;20559;-76
2021/01/08 11:46:21;;;;;;;13.37;7.80;;;3.80;88.20;;;;;;5035581;28;20189;-76
2021/01/08 11:48:50;;;;;;;16.23;9.13;;;3.80;88.20;;;;;;5042622;28;20382;-76
2021/01/08 11:51:16;;;;;;;14.97;9.27;;;3.80;88.60;;;;;;5031174;28;20486;-75
2021/01/08 11:53:46;;;;;;;14.00;7.33;;;3.80;88.80;;;;;;5034018;28;20433;-76
2021/01/08 11:56:13;;;;;;;11.87;6.87;;;3.80;88.70;;;;;;5020346;28;20445;-75
2021/01/08 11:58:40;;;;;;;14.53;8.13;;;3.80;89.00;;;;;;5042764;28;20465;-77
2021/01/08 12:01:07;;;;;;;12.43;7.00;;;3.80;88.90;;;;;;5042941;28;20416;-76
2021/01/08 12:03:34;;;;;;;13.60;7.63;;;3.80;88.40;;;;;;5039614;28;20485;-75
2021/01/08 12:06:00;;;;;;;13.30;6.97;;;3.80;88.10;;;;;;5050043;28;20451;-75
2021/01/08 12:08:25;;;;;;;15.53;7.43;;;3.80;88.30;;;;;;5046110;28;20497;-75
2021/01/08 12:10:51;;;;;;;13.00;6.83;;;3.70;87.60;;;;;;5043568;28;20586;-76
2021/01/08 12:13:18;;;;;;;28.67;14.50;;;3.60;88.30;;;;;;5036925;28;20216;-76
2021/01/08 12:15:44;;;;;;;19.20;9.90;;;3.60;88.70;;;;;;5047759;28;20440;-77
2021/01/08 12:18:11;;;;;;;12.00;8.13;;;3.60;88.90;;;;;;5048513;28;20880;-75
2021/01/08 12:20:38;;;;;;;16.60;9.10;;;3.60;89.10;;;;;;5052320;28;20253;-76
2021/01/08 12:23:04;;;;;;;16.47;10.03;;;3.60;89.50;;;;;;5042225;28;20421;-74
2021/01/08 12:25:35;;;;;;;14.57;8.90;;;3.50;89.80;;;;;;5032797;28;20528;-74
2021/01/08 12:28:08;;;;;;;14.60;7.40;;;3.50;90.00;;;;;;5034466;28;20425;-77
2021/01/08 12:30:34;;;;;;;16.93;9.10;;;3.60;90.40;;;;;;5016667;28;20431;-75
2021/01/08 12:33:02;;;;;;;21.23;8.83;;;3.50;90.00;;;;;;5016839;28;20421;-77
2021/01/08 12:35:28;;;;;;;12.77;7.20;;;3.50;90.00;;;;;;5033873;28;20451;-75
2021/01/08 12:37:54;;;;;;;17.07;9.13;;;3.50;90.30;;;;;;5035389;28;21162;-77
2021/01/08 12:40:21;;;;;;;15.13;7.63;;;3.50;90.20;;;;;;5033663;28;20489;-76
2021/01/08 12:42:48;;;;;;;13.90;8.27;;;3.50;90.30;;;;;;5038841;28;20433;-76
2021/01/08 12:45:14;;;;;;;14.37;9.43;;;3.40;90.30;;;;;;5034074;28;20452;-75
2021/01/08 12:47:40;;;;;;;14.50;9.37;;;3.40;90.30;;;;;;5035694;28;20409;-77
2021/01/08 12:50:07;;;;;;;16.63;9.50;;;3.30;90.20;;;;;;5033999;28;20417;-76
2021/01/08 12:52:33;;;;;;;18.33;10.63;;;3.30;90.20;;;;;;5016115;28;20504;-76